Time;durP1;ratioP1;P1;durP2;ratioP2;P2;SDS_P1;SDS_P2;PMS_P1;PMS_P2;Temp;Humidity;BMP_temperature;BMP_pressure;BME280_temperature;BME280_humidity;BME280_pressure;Samples;Min_cycle;Max_cycle;Signal;HPM_P1;HPM_P2
2022/10/09 00:00:45;;;;;;;6.40;3.08;;;9.90;99.90;;;;;;5156361;27;20406;-65
2022/10/09 00:03:11;;;;;;;8.90;3.15;;;9.90;99.90;;;;;;5156281;27;20038;-65
2022/10/09 00:05:38;;;;;;;8.15;3.78;;;9.90;99.90;;;;;;5155936;27;20057;-65
2022/10/09 00:08:03;;;;;;;6.32;3.67;;;9.80;99.90;;;;;;5156300;27;20046;-65
2022/10/09 00:10:29;;;;;;;6.45;3.38;;;9.80;99.90;;;;;;5156141;27;20034;-65
2022/10/09 00:12:56;;;;;;;4.88;3.60;;;9.80;99.90;;;;;;5156124;27;20043;-65
2022/10/09 00:15:22;;;;;;;7.85;3.47;;;9.80;99.90;;;;;;5155807;27;20126;-65
2022/10/09 00:17:47;;;;;;;7.07;2.78;;;9.70;99.90;;;;;;5155828;27;20035;-65
2022/10/09 00:20:13;;;;;;;7.28;3.05;;;9.70;99.90;;;;;;5156140;27;20573;-65
2022/10/09 00:22:39;;;;;;;4.75;3.17;;;9.70;99.90;;;;;;5156111;27;20066;-65
2022/10/09 00:25:05;;;;;;;8.55;3.30;;;9.70;99.90;;;;;;5155712;27;20031;-65
2022/10/09 00:27:31;;;;;;;6.00;3.00;;;9.70;99.90;;;;;;5155867;27;20042;-65
2022/10/09 00:29:56;;;;;;;9.20;3.08;;;9.70;99.90;;;;;;5155868;27;20043;-65
2022/10/09 00:32:22;;;;;;;5.53;3.67;;;9.60;99.90;;;;;;5155599;27;20045;-65
2022/10/09 00:34:48;;;;;;;6.57;3.30;;;9.60;99.90;;;;;;5155558;27;20038;-65
2022/10/09 00:37:13;;;;;;;6.20;3.13;;;9.60;99.90;;;;;;5154181;27;20035;-65
2022/10/09 00:39:39;;;;;;;9.38;3.30;;;9.60;99.90;;;;;;5155690;27;20447;-65
2022/10/09 00:42:04;;;;;;;6.82;2.92;;;9.50;99.90;;;;;;5155625;27;20691;-65
2022/10/09 00:44:56;;;;;;;8.25;3.00;;;9.50;99.90;;;;;;5155275;27;20041;-65
2022/10/09 00:47:46;;;;;;;6.50;3.28;;;9.50;99.90;;;;;;5155540;27;20035;-65
2022/10/09 00:50:24;;;;;;;3.78;2.55;;;9.50;99.90;;;;;;5155470;27;20088;-65
2022/10/09 00:52:53;;;;;;;9.15;3.42;;;9.40;99.90;;;;;;5154271;27;20039;-65
2022/10/09 00:55:20;;;;;;;7.00;2.85;;;9.40;99.90;;;;;;5136413;27;20042;-65
2022/10/09 00:57:45;;;;;;;5.05;3.00;;;9.40;99.90;;;;;;5155140;27;20042;-65
2022/10/09 01:00:12;;;;;;;7.45;3.13;;;9.30;99.90;;;;;;5154010;27;20053;-65
2022/10/09 01:02:38;;;;;;;5.95;2.92;;;9.30;99.90;;;;;;5155158;27;20038;-65
2022/10/09 01:05:05;;;;;;;6.07;3.28;;;9.30;99.90;;;;;;5154922;27;20440;-65
2022/10/09 01:07:55;;;;;;;5.60;3.50;;;9.30;99.90;;;;;;5136562;27;20094;-65
2022/10/09 01:10:34;;;;;;;6.93;3.75;;;9.30;99.90;;;;;;5154993;27;20511;-65
2022/10/09 01:13:24;;;;;;;6.68;3.15;;;9.20;99.90;;;;;;5155044;27;20458;-65
2022/10/09 01:15:57;;;;;;;5.68;3.45;;;9.10;99.90;;;;;;5154737;27;20046;-65
2022/10/09 01:18:39;;;;;;;3.15;2.85;;;9.10;99.90;;;;;;5155007;27;20682;-65
2022/10/09 01:21:17;;;;;;;9.83;3.00;;;9.10;99.90;;;;;;5134112;27;20483;-65
2022/10/09 01:24:23;;;;;;;4.88;2.80;;;8.90;99.90;;;;;;5133864;27;20076;-65
2022/10/09 01:27:17;;;;;;;9.32;3.15;;;8.90;99.90;;;;;;5134134;27;20091;-65
2022/10/09 01:29:49;;;;;;;5.07;3.08;;;8.90;99.90;;;;;;5133991;27;20118;-65
2022/10/09 01:32:22;;;;;;;6.97;3.22;;;8.80;99.90;;;;;;5134015;27;20368;-65
2022/10/09 01:34:49;;;;;;;4.53;3.05;;;8.60;99.90;;;;;;5133310;27;20043;-65
2022/10/09 01:37:17;;;;;;;7.28;2.80;;;8.70;99.90;;;;;;5133923;27;20042;-65
2022/10/09 01:39:44;;;;;;;5.85;2.78;;;8.60;99.90;;;;;;5133843;27;20050;-65
2022/10/09 01:42:12;;;;;;;4.95;2.95;;;8.50;99.90;;;;;;5133823;27;20149;-65
2022/10/09 01:44:37;;;;;;;4.22;2.40;;;8.50;99.90;;;;;;5133278;27;20534;-65
2022/10/09 01:47:05;;;;;;;6.03;2.75;;;8.50;99.90;;;;;;5133507;27;20043;-65
2022/10/09 01:49:42;;;;;;;4.40;2.78;;;8.50;99.90;;;;;;5133466;27;20145;-65
2022/10/09 01:52:23;;;;;;;10.30;3.60;;;8.50;99.90;;;;;;5133687;27;20047;-65
2022/10/09 01:54:56;;;;;;;3.10;2.90;;;8.50;99.90;;;;;;5133139;27;20055;-65
2022/10/09 01:57:36;;;;;;;4.10;3.20;;;8.50;99.90;;;;;;5114739;27;20039;-65
2022/10/09 02:00:08;;;;;;;4.45;3.20;;;8.50;99.90;;;;;;5133252;27;20376;-65
2022/10/09 02:02:34;;;;;;;4.80;3.30;;;8.50;99.90;;;;;;5133311;27;20047;-65
2022/10/09 02:05:00;;;;;;;7.10;3.03;;;8.40;99.90;;;;;;5133132;27;20114;-65
2022/10/09 02:07:28;;;;;;;4.05;3.22;;;8.40;99.90;;;;;;5133515;27;20035;-65
2022/10/09 02:09:54;;;;;;;4.55;3.40;;;8.40;99.90;;;;;;5133016;27;20403;-65
2022/10/09 02:12:22;;;;;;;3.72;2.75;;;8.30;99.90;;;;;;5133162;27;20035;-65
2022/10/09 02:14:47;;;;;;;4.60;2.95;;;8.20;99.90;;;;;;5132790;27;20096;-65
2022/10/09 02:17:20;;;;;;;5.28;3.38;;;8.30;99.90;;;;;;5133119;27;20035;-65
2022/10/09 02:19:51;;;;;;;7.60;3.00;;;8.20;99.90;;;;;;5133251;27;20038;-65
2022/10/09 02:22:26;;;;;;;4.15;2.75;;;8.20;99.90;;;;;;5133104;27;20084;-65
2022/10/09 02:24:53;;;;;;;9.98;3.17;;;8.20;99.90;;;;;;5132758;27;20403;-65
2022/10/09 02:27:20;;;;;;;5.68;2.70;;;8.20;99.90;;;;;;5132799;27;20043;-65
2022/10/09 02:29:47;;;;;;;5.50;3.08;;;8.20;99.90;;;;;;5133077;27;20395;-66
2022/10/09 02:32:13;;;;;;;3.53;2.50;;;8.20;99.90;;;;;;5133027;27;20047;-65
2022/10/09 02:34:39;;;;;;;8.18;3.58;;;8.20;99.90;;;;;;5132567;27;20050;-65
2022/10/09 02:37:05;;;;;;;5.80;2.83;;;8.20;99.90;;;;;;5132776;27;20073;-65
2022/10/09 02:39:31;;;;;;;5.63;2.85;;;8.10;99.90;;;;;;5132777;27;20035;-65
2022/10/09 02:41:57;;;;;;;5.50;2.78;;;8.00;99.90;;;;;;5132607;27;20114;-65
2022/10/09 02:44:22;;;;;;;3.90;2.55;;;7.90;99.90;;;;;;5132573;27;20043;-65
2022/10/09 02:46:48;;;;;;;3.30;2.50;;;8.00;99.90;;;;;;5132756;27;20039;-65
2022/10/09 02:49:13;;;;;;;3.20;2.78;;;7.90;99.90;;;;;;5132756;27;20488;-65
2022/10/09 02:51:39;;;;;;;4.88;2.53;;;7.80;99.90;;;;;;5132698;28;20077;-65
2022/10/09 02:54:05;;;;;;;6.80;3.13;;;7.90;99.90;;;;;;5130920;28;20515;-65
2022/10/09 02:56:30;;;;;;;3.58;2.47;;;7.90;99.90;;;;;;5131889;27;20495;-65
2022/10/09 02:58:56;;;;;;;4.18;2.80;;;7.90;99.90;;;;;;5132465;28;20035;-65
2022/10/09 03:01:22;;;;;;;3.83;2.40;;;7.90;99.90;;;;;;5132528;27;20077;-65
2022/10/09 03:03:48;;;;;;;3.78;2.17;;;7.90;99.90;;;;;;5132339;27;20031;-65
2022/10/09 03:06:17;;;;;;;4.15;2.92;;;7.90;99.90;;;;;;5132604;28;20552;-65
2022/10/09 03:08:45;;;;;;;4.47;2.55;;;7.80;99.90;;;;;;5132234;27;20043;-65
2022/10/09 03:11:13;;;;;;;4.90;2.60;;;7.80;99.90;;;;;;5132333;27;20039;-65
2022/10/09 03:13:39;;;;;;;3.88;3.08;;;7.80;99.90;;;;;;5132263;27;20071;-65
2022/10/09 03:16:06;;;;;;;5.00;2.83;;;7.80;99.90;;;;;;5132292;27;20538;-65
2022/10/09 03:18:32;;;;;;;4.90;2.90;;;7.80;99.90;;;;;;5132368;27;20039;-65
2022/10/09 03:20:58;;;;;;;4.55;2.85;;;7.70;99.90;;;;;;5132410;27;20107;-65
2022/10/09 03:23:24;;;;;;;3.85;2.85;;;7.70;99.90;;;;;;5135300;27;20127;-65
2022/10/09 03:26:01;;;;;;;2.50;2.30;;;7.80;99.90;;;;;;5136037;27;20100;-65
2022/10/09 03:28:27;;;;;;;4.90;2.60;;;7.80;99.90;;;;;;5136371;27;20050;-65
2022/10/09 03:30:53;;;;;;;3.47;2.75;;;7.70;99.90;;;;;;5136307;27;20031;-65
2022/10/09 03:33:20;;;;;;;4.40;2.40;;;7.80;99.90;;;;;;5136089;27;20051;-65
2022/10/09 03:35:47;;;;;;;2.28;2.08;;;7.70;99.90;;;;;;5135871;27;20039;-65
2022/10/09 03:38:14;;;;;;;3.17;2.67;;;7.60;99.90;;;;;;5135931;27;20031;-65
2022/10/09 03:40:39;;;;;;;6.30;3.03;;;7.50;99.90;;;;;;5136127;27;20435;-65
2022/10/09 03:43:05;;;;;;;2.92;2.42;;;7.40;99.90;;;;;;5136070;27;20122;-65
2022/10/09 03:45:31;;;;;;;3.85;2.40;;;7.50;99.90;;;;;;5135755;27;20046;-65
2022/10/09 03:47:57;;;;;;;2.35;2.15;;;7.60;99.90;;;;;;5134747;27;20495;-65
2022/10/09 03:50:22;;;;;;;2.53;2.33;;;7.50;99.90;;;;;;5134546;27;20043;-65
2022/10/09 03:52:48;;;;;;;2.58;2.38;;;7.30;99.90;;;;;;5117262;27;20046;-65
2022/10/09 03:55:13;;;;;;;6.63;2.83;;;7.40;99.90;;;;;;5135690;27;20087;-65
2022/10/09 03:57:39;;;;;;;2.15;1.95;;;7.40;99.90;;;;;;5135724;27;20039;-65
2022/10/09 04:00:06;;;;;;;7.22;2.40;;;7.30;99.90;;;;;;5135643;27;20598;-65
2022/10/09 04:02:32;;;;;;;2.45;2.17;;;7.30;99.90;;;;;;5135825;27;20444;-65
2022/10/09 04:04:58;;;;;;;4.78;2.60;;;7.30;99.90;;;;;;5134152;27;20051;-65
2022/10/09 04:07:24;;;;;;;2.55;2.35;;;7.30;99.90;;;;;;5135385;27;20411;-66
2022/10/09 04:09:50;;;;;;;2.58;2.38;;;7.40;99.90;;;;;;5135670;27;20039;-65
2022/10/09 04:12:15;;;;;;;5.95;2.70;;;7.20;99.90;;;;;;5135592;27;20559;-65
2022/10/09 04:14:41;;;;;;;2.90;2.63;;;7.20;99.90;;;;;;5135181;27;20122;-65
2022/10/09 04:17:06;;;;;;;3.38;2.58;;;7.20;99.90;;;;;;5135313;27;20118;-65
2022/10/09 04:19:32;;;;;;;2.53;1.95;;;7.30;99.90;;;;;;5134111;27;20031;-65
2022/10/09 04:21:57;;;;;;;3.00;2.70;;;7.10;99.90;;;;;;5135095;27;20118;-65
2022/10/09 04:24:23;;;;;;;3.25;2.50;;;7.10;99.90;;;;;;5135182;27;20679;-65
2022/10/09 04:26:48;;;;;;;4.10;2.88;;;7.10;99.90;;;;;;5135011;27;20075;-65
2022/10/09 04:29:14;;;;;;;2.92;2.22;;;7.20;99.90;;;;;;5135179;27;20043;-65
2022/10/09 04:31:39;;;;;;;2.15;1.80;;;7.10;99.90;;;;;;5135212;27;20039;-65
2022/10/09 04:34:05;;;;;;;3.00;2.47;;;7.10;99.90;;;;;;5134440;27;20046;-65
2022/10/09 04:36:31;;;;;;;2.30;2.10;;;7.10;99.90;;;;;;5134745;27;20035;-65
2022/10/09 04:38:56;;;;;;;3.75;2.38;;;7.00;99.90;;;;;;5133843;27;20038;-65
2022/10/09 04:41:22;;;;;;;3.58;2.40;;;7.00;99.90;;;;;;5135003;27;20057;-65
2022/10/09 04:43:47;;;;;;;4.90;2.78;;;6.90;99.90;;;;;;5134603;27;20093;-65
2022/10/09 04:46:14;;;;;;;3.63;2.60;;;6.90;99.90;;;;;;5134876;27;20043;-65
2022/10/09 04:48:41;;;;;;;2.50;2.30;;;7.00;99.90;;;;;;5134644;27;20035;-65
2022/10/09 04:51:08;;;;;;;4.97;2.75;;;6.90;99.90;;;;;;5134713;27;20043;-65
2022/10/09 04:53:34;;;;;;;4.05;2.55;;;7.00;99.90;;;;;;5134682;27;20043;-65
2022/10/09 04:56:07;;;;;;;4.60;3.13;;;6.80;99.90;;;;;;5134260;27;20503;-65
2022/10/09 04:58:35;;;;;;;;;;;6.90;99.90;;;;;;5134900;27;20031;-65
2022/10/09 05:01:05;;;;;;;2.33;2.13;;;6.90;99.90;;;;;;5133198;27;19915;-65
2022/10/09 05:03:31;;;;;;;5.75;3.00;;;6.80;99.90;;;;;;5134533;27;20058;-65
2022/10/09 05:06:03;;;;;;;2.70;2.38;;;6.80;99.90;;;;;;5115664;27;20238;-65
2022/10/09 05:08:30;;;;;;;4.00;2.30;;;6.80;99.90;;;;;;5134311;27;20049;-65
2022/10/09 05:11:04;;;;;;;5.63;2.67;;;6.80;99.90;;;;;;5134104;27;20051;-65
2022/10/09 05:13:31;;;;;;;4.95;2.58;;;6.70;99.90;;;;;;5132861;27;20059;-65
2022/10/09 05:16:05;;;;;;;3.42;2.90;;;6.70;99.90;;;;;;5134097;27;20035;-65
2022/10/09 05:18:31;;;;;;;3.35;2.85;;;6.70;99.90;;;;;;5134213;27;20074;-65
2022/10/09 05:20:57;;;;;;;2.92;2.70;;;6.80;99.90;;;;;;5115741;27;20039;-65
2022/10/09 05:23:22;;;;;;;4.75;2.67;;;6.80;99.90;;;;;;5133991;27;20045;-65
2022/10/09 05:25:56;;;;;;;3.50;3.15;;;6.70;99.90;;;;;;5133858;27;20045;-65
2022/10/09 05:28:22;;;;;;;4.10;2.90;;;6.70;99.90;;;;;;5134151;27;20039;-65
2022/10/09 05:30:48;;;;;;;4.20;2.90;;;6.60;99.90;;;;;;5132558;27;20064;-65
2022/10/09 05:33:13;;;;;;;3.50;2.90;;;6.70;99.90;;;;;;5133882;27;20039;-65
2022/10/09 05:35:39;;;;;;;4.10;2.67;;;6.60;99.90;;;;;;5133451;27;20035;-65
2022/10/09 05:38:04;;;;;;;3.25;2.58;;;6.60;99.90;;;;;;5133127;27;20047;-65
2022/10/09 05:40:30;;;;;;;3.05;2.22;;;6.50;99.90;;;;;;5131091;27;20039;-65
2022/10/09 05:42:55;;;;;;;3.03;2.60;;;6.50;99.90;;;;;;5130457;27;20039;-65
2022/10/09 05:45:21;;;;;;;2.35;2.15;;;6.50;99.90;;;;;;5130313;27;20078;-65
2022/10/09 05:47:47;;;;;;;2.70;2.17;;;6.40;99.90;;;;;;5133567;27;20031;-65
2022/10/09 05:50:13;;;;;;;2.33;2.13;;;6.30;99.90;;;;;;5132891;27;20058;-65
2022/10/09 05:52:38;;;;;;;2.70;2.50;;;6.30;99.90;;;;;;5132283;27;20042;-65
2022/10/09 05:55:05;;;;;;;3.08;2.75;;;6.30;99.90;;;;;;5132617;27;20047;-65
2022/10/09 05:57:31;;;;;;;3.00;2.55;;;6.40;99.90;;;;;;5132926;27;20039;-65
2022/10/09 05:59:56;;;;;;;2.50;2.30;;;6.40;99.90;;;;;;5133225;27;20038;-65
2022/10/09 06:02:22;;;;;;;3.80;2.80;;;6.40;99.90;;;;;;5133302;27;20080;-65
2022/10/09 06:04:47;;;;;;;3.33;2.50;;;6.30;99.90;;;;;;5132949;27;20039;-65
2022/10/09 06:07:13;;;;;;;2.83;2.20;;;6.30;99.90;;;;;;5133336;27;20039;-65
2022/10/09 06:09:40;;;;;;;2.72;2.22;;;6.20;99.90;;;;;;5133231;27;20045;-65
2022/10/09 06:12:06;;;;;;;13.63;2.38;;;6.10;99.90;;;;;;5133245;27;20537;-65
2022/10/09 06:14:31;;;;;;;3.20;2.00;;;6.30;99.90;;;;;;5132857;27;20043;-65
2022/10/09 06:16:58;;;;;;;3.28;3.03;;;6.30;99.90;;;;;;5131889;27;20031;-65
2022/10/09 06:19:24;;;;;;;2.60;2.40;;;6.40;99.90;;;;;;5132952;27;20475;-65
2022/10/09 06:21:50;;;;;;;4.53;2.60;;;6.40;99.90;;;;;;5131731;27;20160;-65
2022/10/09 06:24:24;;;;;;;3.88;2.88;;;6.40;99.90;;;;;;5136518;27;20045;-65
2022/10/09 06:26:49;;;;;;;2.67;2.47;;;6.50;99.90;;;;;;5137260;27;20034;-65
2022/10/09 06:29:15;;;;;;;3.17;2.50;;;6.50;99.90;;;;;;5140772;27;20120;-66
2022/10/09 06:31:40;;;;;;;2.97;2.60;;;6.60;99.90;;;;;;5153433;27;20372;-65
2022/10/09 06:34:08;;;;;;;5.05;2.90;;;6.60;99.90;;;;;;5143704;27;20036;-65
2022/10/09 06:36:34;;;;;;;3.83;2.78;;;6.70;99.90;;;;;;5142109;27;20031;-68
2022/10/09 06:39:03;;;;;;;3.00;2.58;;;6.70;99.90;;;;;;5137149;27;20395;-65
2022/10/09 06:41:29;;;;;;;5.28;3.10;;;6.90;99.90;;;;;;5114319;27;20135;-65
2022/10/09 06:43:59;;;;;;;4.22;3.08;;;6.80;99.90;;;;;;5132487;27;20035;-65
2022/10/09 06:46:30;;;;;;;5.25;3.30;;;6.80;99.90;;;;;;5132587;27;20035;-65
2022/10/09 06:48:58;;;;;;;3.88;3.47;;;6.90;99.90;;;;;;5132865;27;20047;-65
2022/10/09 06:51:26;;;;;;;5.07;3.67;;;7.00;99.90;;;;;;5132818;27;20043;-65
2022/10/09 06:53:54;;;;;;;3.83;3.50;;;7.00;99.90;;;;;;5132373;27;20086;-65
2022/10/09 06:56:23;;;;;;;3.78;3.45;;;7.10;99.90;;;;;;5135330;27;20536;-65
2022/10/09 06:58:49;;;;;;;6.10;3.33;;;7.10;99.90;;;;;;5148109;27;20031;-65
2022/10/09 07:01:14;;;;;;;5.10;3.35;;;7.10;99.90;;;;;;5149583;27;20455;-65
2022/10/09 07:03:42;;;;;;;4.00;3.60;;;7.10;99.90;;;;;;5151506;27;20026;-65
2022/10/09 07:06:13;;;;;;;6.07;4.28;;;7.10;99.90;;;;;;5151692;27;20038;-65
2022/10/09 07:08:41;;;;;;;6.50;3.90;;;7.20;99.90;;;;;;5134600;27;20073;-65
2022/10/09 07:11:20;;;;;;;5.50;4.13;;;7.20;99.90;;;;;;5152946;27;20096;-65
2022/10/09 07:13:48;;;;;;;5.97;4.13;;;7.30;99.90;;;;;;5137840;27;20490;-65
2022/10/09 07:16:19;;;;;;;5.00;4.07;;;7.30;99.90;;;;;;5139000;27;20046;-65
2022/10/09 07:18:44;;;;;;;7.35;4.53;;;7.40;99.90;;;;;;5139033;27;20088;-65
2022/10/09 07:21:10;;;;;;;6.57;4.13;;;7.40;99.90;;;;;;5138914;27;20035;-65
2022/10/09 07:23:36;;;;;;;7.88;4.97;;;7.50;99.90;;;;;;5138819;27;20039;-65
2022/10/09 07:26:09;;;;;;;10.07;5.43;;;7.60;99.90;;;;;;5138371;27;20036;-65
2022/10/09 07:28:35;;;;;;;8.65;5.07;;;7.60;99.90;;;;;;5146431;27;20038;-65
2022/10/09 07:31:03;;;;;;;7.40;5.38;;;7.70;99.90;;;;;;5147047;27;20046;-65
2022/10/09 07:33:29;;;;;;;7.75;5.40;;;7.80;99.90;;;;;;5132322;27;20046;-65
2022/10/09 07:35:56;;;;;;;7.20;5.30;;;7.80;99.90;;;;;;5156624;27;20505;-65
2022/10/09 07:38:23;;;;;;;7.95;5.68;;;7.90;99.90;;;;;;5155779;27;20558;-65
2022/10/09 07:40:49;;;;;;;8.73;5.75;;;7.90;99.90;;;;;;5156624;27;20436;-65
2022/10/09 07:43:15;;;;;;;8.00;6.28;;;8.00;99.90;;;;;;5157056;27;20041;-65
2022/10/09 07:45:40;;;;;;;8.50;6.43;;;8.00;99.90;;;;;;5156598;27;20031;-65
2022/10/09 07:48:06;;;;;;;12.38;6.38;;;8.10;99.90;;;;;;5153387;27;20047;-65
2022/10/09 07:50:31;;;;;;;12.50;6.90;;;8.20;99.90;;;;;;5146638;27;20027;-65
2022/10/09 07:52:57;;;;;;;9.82;6.75;;;8.30;99.90;;;;;;5154054;27;20043;-65
2022/10/09 07:55:23;;;;;;;12.95;7.03;;;8.30;99.90;;;;;;5156237;27;20031;-65
2022/10/09 07:57:49;;;;;;;10.40;6.88;;;8.40;99.90;;;;;;5156399;27;20095;-65
2022/10/09 08:00:15;;;;;;;12.02;7.03;;;8.40;99.90;;;;;;5150107;27;20035;-65
2022/10/09 08:02:40;;;;;;;15.40;8.70;;;8.50;99.90;;;;;;5143220;27;20123;-65
2022/10/09 08:05:06;;;;;;;14.52;8.02;;;8.50;99.90;;;;;;5143944;27;20527;-65
2022/10/09 08:07:32;;;;;;;18.77;8.20;;;8.60;99.90;;;;;;5125383;27;20034;-68
2022/10/09 08:09:57;;;;;;;12.07;8.18;;;8.60;99.90;;;;;;5146378;27;20502;-65
2022/10/09 08:12:23;;;;;;;11.65;7.75;;;8.70;99.90;;;;;;5138045;27;20556;-65
2022/10/09 08:14:48;;;;;;;13.48;8.05;;;8.80;99.90;;;;;;5135033;27;20503;-65
2022/10/09 08:17:15;;;;;;;12.02;9.32;;;8.90;99.90;;;;;;5116876;27;20088;-65
2022/10/09 08:19:40;;;;;;;15.63;8.38;;;8.90;99.90;;;;;;5135524;27;20077;-67
2022/10/09 08:22:06;;;;;;;17.17;9.27;;;9.00;99.90;;;;;;5135365;27;20063;-65
2022/10/09 08:24:32;;;;;;;15.35;9.02;;;9.10;99.90;;;;;;5136588;27;20035;-65
2022/10/09 08:26:58;;;;;;;16.73;8.07;;;9.10;99.90;;;;;;5144063;27;20079;-65
2022/10/09 08:29:24;;;;;;;13.20;9.60;;;9.20;99.90;;;;;;5137246;27;20075;-65
2022/10/09 08:31:50;;;;;;;16.88;9.02;;;9.30;99.90;;;;;;5134842;27;20050;-65
2022/10/09 08:34:16;;;;;;;12.98;8.73;;;9.30;99.90;;;;;;5133365;27;20530;-65
2022/10/09 08:36:42;;;;;;;15.70;8.88;;;9.40;99.90;;;;;;5135005;27;20092;-65
2022/10/09 08:39:07;;;;;;;16.55;8.15;;;9.50;99.90;;;;;;5134890;27;20510;-65
2022/10/09 08:41:45;;;;;;;16.17;9.20;;;9.50;99.90;;;;;;5133443;27;20066;-65
2022/10/09 08:44:22;;;;;;;15.95;8.27;;;9.60;99.90;;;;;;5134486;27;20455;-65
2022/10/09 08:47:02;;;;;;;20.88;9.77;;;9.60;99.90;;;;;;5134611;27;20689;-66
2022/10/09 08:49:43;;;;;;;13.93;8.10;;;9.70;99.90;;;;;;5145280;27;20042;-65
2022/10/09 08:52:15;;;;;;;15.40;7.90;;;9.70;99.90;;;;;;5145642;27;20035;-65
2022/10/09 08:54:40;;;;;;;14.32;8.55;;;9.80;99.90;;;;;;5143981;27;20400;-65
2022/10/09 08:57:12;;;;;;;16.38;8.35;;;10.00;99.90;;;;;;5125511;27;20030;-65
2022/10/09 08:59:38;;;;;;;16.07;8.13;;;10.10;99.90;;;;;;5148726;27;20038;-65
2022/10/09 09:02:41;;;;;;;16.38;8.68;;;10.10;99.90;;;;;;5143089;27;20616;-65
2022/10/09 09:05:34;;;;;;;20.20;7.75;;;10.20;99.90;;;;;;5153672;27;20120;-65
2022/10/09 09:08:12;;;;;;;13.88;7.20;;;10.30;99.90;;;;;;5154861;27;20042;-65
2022/10/09 09:10:45;;;;;;;11.32;6.93;;;10.30;99.90;;;;;;5155165;27;20060;-65
2022/10/09 09:13:33;;;;;;;10.48;7.10;;;10.40;99.90;;;;;;5151125;27;20047;-65
2022/10/09 09:16:19;;;;;;;10.90;6.80;;;10.50;99.90;;;;;;5154717;27;20479;-67
2022/10/09 09:19:15;;;;;;;14.38;7.00;;;10.60;99.90;;;;;;5154821;27;20388;-67
2022/10/09 09:21:51;;;;;;;13.50;6.38;;;10.50;99.90;;;;;;5154441;27;20498;-67
2022/10/09 09:24:39;;;;;;;10.60;6.63;;;10.70;99.90;;;;;;5151025;27;21048;-65
2022/10/09 09:27:19;;;;;;;15.23;6.82;;;10.80;99.90;;;;;;5146742;27;20087;-68
2022/10/09 09:29:57;;;;;;;14.98;5.82;;;10.90;99.90;;;;;;5154804;27;20041;-68
2022/10/09 09:32:27;;;;;;;10.25;5.30;;;11.00;99.90;;;;;;5154683;27;20118;-68
2022/10/09 09:35:05;;;;;;;7.65;4.75;;;10.90;99.90;;;;;;5154283;27;20046;-68
2022/10/09 09:37:30;;;;;;;8.88;5.57;;;11.00;99.90;;;;;;5151897;27;20034;-69
2022/10/09 09:39:56;;;;;;;8.65;5.60;;;11.20;99.90;;;;;;5154405;27;20494;-69
2022/10/09 09:42:22;;;;;;;12.13;5.30;;;11.20;99.90;;;;;;5153868;27;20031;-69
2022/10/09 09:45:02;;;;;;;9.02;4.68;;;11.40;99.90;;;;;;5154055;27;20049;-69
2022/10/09 09:48:05;;;;;;;8.98;4.53;;;11.40;99.90;;;;;;5152679;27;20558;-68
2022/10/09 09:50:38;;;;;;;11.75;4.15;;;11.50;99.90;;;;;;5069551;28;20523;-69
2022/10/09 09:53:28;;;;;;;8.25;3.78;;;11.50;99.90;;;;;;5069568;28;20119;-68
2022/10/09 09:55:55;;;;;;;8.23;4.50;;;11.50;99.90;;;;;;5054734;28;20032;-67
2022/10/09 09:58:21;;;;;;;10.98;3.80;;;11.60;99.90;;;;;;5024262;28;20033;-68
2022/10/09 10:00:55;;;;;;;9.48;4.20;;;11.70;99.90;;;;;;5023860;28;20121;-68
2022/10/09 10:03:22;;;;;;;4.75;3.63;;;11.70;99.90;;;;;;5065595;28;20106;-68
2022/10/09 10:05:47;;;;;;;9.43;4.25;;;11.80;99.90;;;;;;5058522;28;20572;-68
2022/10/09 10:08:16;;;;;;;8.70;4.15;;;11.90;99.90;;;;;;5019774;28;20057;-68
2022/10/09 10:10:46;;;;;;;8.18;3.90;;;11.90;99.90;;;;;;5032816;28;20044;-67
2022/10/09 10:13:20;;;;;;;12.45;4.47;;;12.00;99.90;;;;;;5049442;28;20096;-68
2022/10/09 10:16:06;;;;;;;8.38;3.95;;;12.20;99.90;;;;;;5032607;28;20049;-68
2022/10/09 10:18:40;;;;;;;12.45;4.25;;;12.20;99.90;;;;;;5049379;28;20045;-68
2022/10/09 10:21:11;;;;;;;7.82;3.83;;;12.20;99.90;;;;;;5049332;28;20131;-68
2022/10/09 10:23:55;;;;;;;7.93;3.85;;;12.30;99.90;;;;;;5032777;28;20191;-68
2022/10/09 10:26:34;;;;;;;8.25;4.10;;;12.30;99.90;;;;;;5075905;27;20047;-67
2022/10/09 10:29:18;;;;;;;6.13;3.55;;;12.40;99.90;;;;;;5132878;27;20043;-67
2022/10/09 10:31:52;;;;;;;11.48;4.65;;;12.50;99.90;;;;;;5132590;27;20043;-68
2022/10/09 10:34:29;;;;;;;7.38;3.28;;;12.50;99.90;;;;;;5132545;27;20434;-68
2022/10/09 10:37:24;;;;;;;8.48;3.97;;;12.50;99.90;;;;;;5132871;27;20035;-68
2022/10/09 10:39:57;;;;;;;10.70;3.88;;;12.60;99.90;;;;;;5090238;27;20054;-68
2022/10/09 10:42:42;;;;;;;6.50;3.50;;;12.70;99.90;;;;;;5132673;27;20035;-68
2022/10/09 10:45:08;;;;;;;6.43;3.20;;;12.70;99.90;;;;;;5132361;27;20565;-68
2022/10/09 10:47:38;;;;;;;9.02;4.10;;;12.70;99.90;;;;;;5132601;27;20043;-67
2022/10/09 10:50:11;;;;;;;9.10;3.63;;;12.70;99.90;;;;;;5132551;27;20043;-68
2022/10/09 10:52:48;;;;;;;12.70;3.70;;;12.70;99.90;;;;;;5132814;27;20107;-68
2022/10/09 10:55:27;;;;;;;8.25;4.30;;;12.80;99.90;;;;;;5132208;28;20039;-67
2022/10/09 10:58:01;;;;;;;9.13;4.53;;;12.90;99.90;;;;;;5132435;27;20088;-68
2022/10/09 11:00:27;;;;;;;11.90;4.65;;;12.90;99.90;;;;;;5132477;28;20039;-68
2022/10/09 11:03:04;;;;;;;6.95;4.30;;;12.90;99.90;;;;;;5132326;27;20035;-68
2022/10/09 11:05:55;;;;;;;11.30;3.50;;;12.90;99.90;;;;;;5132382;27;20043;-67
2022/10/09 11:08:40;;;;;;;12.48;3.20;;;12.90;99.90;;;;;;5132335;28;20560;-67
2022/10/09 11:11:40;;;;;;;7.90;3.15;;;13.00;99.90;;;;;;5132312;27;20039;-68
2022/10/09 11:14:22;;;;;;;7.10;2.80;;;13.10;99.90;;;;;;5132225;27;20035;-67
2022/10/09 11:17:05;;;;;;;7.22;3.30;;;13.10;99.90;;;;;;5132284;28;20031;-67
2022/10/09 11:19:58;;;;;;;10.02;3.10;;;13.10;99.90;;;;;;5132213;27;20111;-68
2022/10/09 11:22:37;;;;;;;8.77;3.42;;;13.10;99.90;;;;;;5132374;28;20118;-67
2022/10/09 11:25:16;;;;;;;8.10;3.17;;;13.20;99.90;;;;;;5132047;27;20506;-67
2022/10/09 11:27:47;;;;;;;6.05;2.80;;;13.30;99.90;;;;;;5131995;28;20039;-67
2022/10/09 11:30:15;;;;;;;6.00;2.78;;;13.40;99.90;;;;;;5132455;28;20047;-68
2022/10/09 11:32:56;;;;;;;7.65;2.30;;;13.30;99.90;;;;;;5132017;27;20494;-68
2022/10/09 11:35:24;;;;;;;4.25;2.38;;;13.50;99.90;;;;;;5140227;22;20023;-69
2022/10/09 11:37:58;;;;;;;5.95;2.50;;;13.60;99.90;;;;;;5071293;28;20036;-68
2022/10/09 11:40:29;;;;;;;4.72;2.00;;;13.70;99.90;;;;;;5053306;28;20067;-68
2022/10/09 11:43:22;;;;;;;9.10;2.22;;;13.60;99.90;;;;;;5053536;28;20110;-68
2022/10/09 11:46:18;;;;;;;6.32;2.33;;;13.60;99.90;;;;;;5074590;28;20040;-69
2022/10/09 11:48:53;;;;;;;6.35;2.58;;;13.70;99.90;;;;;;5070492;28;20045;-68
2022/10/09 11:51:31;;;;;;;3.90;1.60;;;13.70;99.90;;;;;;5074657;28;20512;-69
2022/10/09 11:53:58;;;;;;;7.13;1.95;;;13.80;99.90;;;;;;5056332;28;20129;-69
2022/10/09 11:56:29;;;;;;;6.13;2.05;;;13.90;99.90;;;;;;5074698;28;20045;-69
2022/10/09 11:59:05;;;;;;;5.45;2.03;;;13.90;99.90;;;;;;5056501;28;20041;-69
2022/10/09 12:01:37;;;;;;;5.53;2.13;;;14.00;99.90;;;;;;5074538;28;20051;-68
2022/10/09 12:04:11;;;;;;;4.00;1.85;;;14.00;99.90;;;;;;5073978;28;20037;-69
2022/10/09 12:06:44;;;;;;;6.50;2.13;;;14.00;99.90;;;;;;5074289;28;20119;-68
2022/10/09 12:09:33;;;;;;;4.70;2.17;;;14.00;99.90;;;;;;5056307;28;20141;-69
2022/10/09 12:12:05;;;;;;;5.95;2.30;;;14.00;99.90;;;;;;5074388;28;20123;-68
2022/10/09 12:14:32;;;;;;;3.38;1.98;;;14.00;99.90;;;;;;5073922;28;20090;-69
2022/10/09 12:16:58;;;;;;;7.32;2.45;;;14.00;99.90;;;;;;5074268;28;20389;-69
2022/10/09 12:19:29;;;;;;;7.70;2.20;;;14.10;99.90;;;;;;5074291;28;20036;-69
2022/10/09 12:22:06;;;;;;;6.28;3.60;;;14.10;99.90;;;;;;5056187;28;20040;-69
2022/10/09 12:24:45;;;;;;;5.03;1.92;;;14.10;99.90;;;;;;5039314;28;20048;-69
2022/10/09 12:27:25;;;;;;;6.95;2.42;;;14.20;99.90;;;;;;5056286;28;20404;-68
2022/10/09 12:30:04;;;;;;;6.65;2.58;;;14.20;99.90;;;;;;5074267;28;20444;-68
2022/10/09 12:32:38;;;;;;;6.00;2.17;;;14.30;99.90;;;;;;5055953;28;20032;-69
2022/10/09 12:35:23;;;;;;;6.20;2.33;;;14.30;99.90;;;;;;5038943;28;20076;-69
2022/10/09 12:37:49;;;;;;;6.05;2.00;;;14.20;99.90;;;;;;5073750;28;20379;-69
2022/10/09 12:40:21;;;;;;;10.07;2.15;;;14.30;99.90;;;;;;5073857;28;20029;-69
2022/10/09 12:42:50;;;;;;;3.17;1.88;;;14.40;99.90;;;;;;5056141;28;20036;-69
2022/10/09 12:45:23;;;;;;;9.63;1.95;;;14.40;99.90;;;;;;5055544;28;20048;-69
2022/10/09 12:47:51;;;;;;;5.15;2.00;;;14.40;99.90;;;;;;5073736;28;20493;-69
2022/10/09 12:50:33;;;;;;;3.65;1.77;;;14.40;99.90;;;;;;5073908;28;20032;-69
2022/10/09 12:53:06;;;;;;;2.08;1.88;;;14.30;99.90;;;;;;5055635;28;20056;-68
2022/10/09 12:55:39;;;;;;;;;;;14.40;99.90;;;;;;5055819;28;20040;-69
2022/10/09 12:58:15;;;;;;;3.92;1.67;;;14.40;99.90;;;;;;5073640;28;19923;-68
2022/10/09 13:00:41;;;;;;;4.32;1.60;;;14.40;99.90;;;;;;5073115;28;20032;-68
2022/10/09 13:03:36;;;;;;;4.55;2.00;;;14.40;99.90;;;;;;5055359;28;20537;-68
2022/10/09 13:06:04;;;;;;;6.43;1.90;;;14.40;99.90;;;;;;5063604;28;20055;-69
2022/10/09 13:08:34;;;;;;;7.97;2.00;;;14.60;99.90;;;;;;5074205;28;20130;-69
2022/10/09 13:11:30;;;;;;;8.10;1.67;;;14.50;99.90;;;;;;5055110;28;20079;-68